Time;durP1;ratioP1;P1;durP2;ratioP2;P2;SDS_P1;SDS_P2;PMS_P1;PMS_P2;Temp;Humidity;BMP_temperature;BMP_pressure;BME280_temperature;BME280_humidity;BME280_pressure;Samples;Min_cycle;Max_cycle;Signal;HPM_P1;HPM_P2
2022/07/03 00:01:32;;;;;;;2.72;1.70;;;17.20;99.90;;;;;;5084597;28;20032;-75
2022/07/03 00:03:57;;;;;;;4.53;1.87;;;17.10;99.90;;;;;;5098015;28;20122;-75
2022/07/03 00:06:24;;;;;;;2.95;1.60;;;17.10;99.90;;;;;;5067403;28;20716;-75
2022/07/03 00:08:50;;;;;;;3.42;1.77;;;17.10;99.90;;;;;;5084224;27;20039;-75
2022/07/03 00:11:16;;;;;;;3.72;1.80;;;17.10;99.90;;;;;;5082992;28;20490;-74
2022/07/03 00:13:42;;;;;;;2.83;1.90;;;17.10;99.90;;;;;;5081879;28;20036;-74
2022/07/03 00:16:08;;;;;;;3.85;1.80;;;17.10;99.90;;;;;;5082956;28;20047;-74
2022/07/03 00:18:33;;;;;;;3.80;1.52;;;17.00;99.90;;;;;;5078857;28;20533;-75
2022/07/03 00:21:04;;;;;;;5.05;2.05;;;16.90;99.90;;;;;;5092300;27;20446;-74
2022/07/03 00:23:40;;;;;;;2.83;1.60;;;16.90;99.90;;;;;;5079355;28;20051;-75
2022/07/03 00:26:07;;;;;;;3.45;1.58;;;16.80;99.90;;;;;;5097102;28;20051;-74
2022/07/03 00:28:33;;;;;;;3.00;1.60;;;16.70;99.90;;;;;;5067092;28;20040;-74
2022/07/03 00:30:59;;;;;;;1.98;1.55;;;16.70;99.90;;;;;;5084921;28;20569;-74
2022/07/03 00:33:28;;;;;;;3.60;2.00;;;16.60;99.90;;;;;;5078711;28;20201;-75
2022/07/03 00:35:55;;;;;;;3.08;1.77;;;16.60;99.90;;;;;;5066519;28;20036;-75
2022/07/03 00:38:24;;;;;;;3.85;1.90;;;16.60;99.90;;;;;;5103364;27;20048;-75
2022/07/03 00:40:50;;;;;;;4.03;1.77;;;16.50;99.90;;;;;;5079670;28;20027;-75
2022/07/03 00:43:20;;;;;;;3.03;1.90;;;16.50;99.90;;;;;;5082007;28;20432;-74
2022/07/03 00:45:50;;;;;;;2.65;1.80;;;16.40;99.90;;;;;;5083790;28;20088;-74
2022/07/03 00:48:20;;;;;;;;;;;16.50;99.90;;;;;;5083490;28;20043;-75
2022/07/03 00:50:51;;;;;;;5.57;1.80;;;16.40;99.90;;;;;;5084973;28;19924;-75
2022/07/03 00:53:32;;;;;;;3.22;1.80;;;16.40;99.90;;;;;;5096603;28;20040;-75
2022/07/03 00:56:00;;;;;;;3.78;2.28;;;16.40;99.90;;;;;;5093687;28;20028;-75
2022/07/03 00:58:27;;;;;;;3.58;1.98;;;16.30;99.90;;;;;;5083847;28;20055;-75
2022/07/03 01:00:54;;;;;;;5.10;2.10;;;16.30;99.90;;;;;;5099318;28;20100;-75
2022/07/03 01:03:23;;;;;;;3.38;2.17;;;16.30;99.90;;;;;;5098320;28;20039;-74
2022/07/03 01:05:52;;;;;;;3.53;2.10;;;16.30;99.90;;;;;;5078946;28;20094;-75
2022/07/03 01:08:45;;;;;;;3.17;2.00;;;16.30;99.90;;;;;;5084479;28;20146;-74
2022/07/03 01:11:42;;;;;;;4.13;1.90;;;16.20;99.90;;;;;;5079390;28;20048;-75
2022/07/03 01:14:14;;;;;;;4.75;1.95;;;16.10;99.90;;;;;;5081136;28;20081;-74
2022/07/03 01:17:02;;;;;;;4.07;2.10;;;16.00;99.90;;;;;;5090446;28;20054;-75
2022/07/03 01:19:49;;;;;;;4.28;1.92;;;16.00;99.90;;;;;;5082328;28;20048;-74
2022/07/03 01:22:32;;;;;;;4.07;2.10;;;15.90;99.90;;;;;;5094674;28;20498;-75
2022/07/03 01:25:16;;;;;;;3.10;2.20;;;15.90;99.90;;;;;;5099111;28;20107;-75
2022/07/03 01:28:01;;;;;;;4.40;2.33;;;15.80;99.90;;;;;;5083965;28;20655;-74
2022/07/03 01:30:33;;;;;;;3.55;1.85;;;15.80;99.90;;;;;;5097521;28;20075;-75
2022/07/03 01:33:13;;;;;;;3.30;2.03;;;15.70;99.90;;;;;;5082548;28;20454;-75
2022/07/03 01:35:41;;;;;;;3.60;2.25;;;15.70;99.90;;;;;;5080063;28;20050;-75
2022/07/03 01:38:12;;;;;;;3.92;2.10;;;15.70;99.90;;;;;;5107476;27;20067;-74
2022/07/03 01:40:40;;;;;;;4.13;2.33;;;15.70;99.90;;;;;;5098180;28;20444;-74
2022/07/03 01:43:11;;;;;;;4.32;2.70;;;15.70;99.90;;;;;;5079131;28;20044;-74
2022/07/03 01:45:42;;;;;;;4.88;2.35;;;15.70;99.90;;;;;;5084225;28;20044;-74
2022/07/03 01:48:10;;;;;;;4.38;2.70;;;15.70;99.90;;;;;;5081571;28;20043;-74
2022/07/03 01:50:37;;;;;;;5.20;1.98;;;15.70;99.90;;;;;;5081023;28;20117;-74
2022/07/03 01:53:06;;;;;;;2.78;2.20;;;15.60;99.90;;;;;;5079599;28;20130;-74
2022/07/03 01:55:33;;;;;;;5.55;2.50;;;15.60;99.90;;;;;;5082564;28;20051;-75
2022/07/03 01:57:59;;;;;;;4.65;3.00;;;15.60;99.90;;;;;;5063769;28;20051;-75
2022/07/03 02:00:25;;;;;;;4.75;2.88;;;15.60;99.90;;;;;;5095985;28;20046;-74
2022/07/03 02:03:01;;;;;;;4.50;2.78;;;15.60;99.90;;;;;;5077117;28;20048;-75
2022/07/03 02:05:37;;;;;;;6.18;3.33;;;15.60;99.90;;;;;;5095880;28;20519;-75
2022/07/03 02:08:02;;;;;;;4.57;3.95;;;15.60;99.90;;;;;;5084886;28;20043;-74
2022/07/03 02:10:33;;;;;;;6.22;3.90;;;15.50;99.90;;;;;;5070925;28;20052;-74
2022/07/03 02:13:10;;;;;;;5.32;3.38;;;15.50;99.90;;;;;;5091892;28;20051;-74
2022/07/03 02:15:41;;;;;;;5.65;3.45;;;15.50;99.90;;;;;;5093409;28;20050;-74
2022/07/03 02:18:25;;;;;;;5.78;3.55;;;15.40;99.90;;;;;;5098134;28;20055;-74
2022/07/03 02:21:03;;;;;;;5.50;3.50;;;15.40;99.90;;;;;;5099569;28;20715;-74
2022/07/03 02:23:32;;;;;;;3.35;3.00;;;15.40;99.90;;;;;;5077195;28;20047;-74
2022/07/03 02:26:02;;;;;;;4.57;3.33;;;15.40;99.90;;;;;;5094852;28;20039;-74
2022/07/03 02:28:46;;;;;;;5.10;3.40;;;15.40;99.90;;;;;;5097234;28;20041;-74
2022/07/03 02:31:16;;;;;;;5.80;3.97;;;15.30;99.90;;;;;;5099561;28;20105;-74
2022/07/03 02:33:44;;;;;;;6.53;4.63;;;15.30;99.90;;;;;;5107270;27;20130;-74
2022/07/03 02:36:11;;;;;;;6.80;4.80;;;15.30;99.90;;;;;;5090826;28;20066;-74
2022/07/03 02:38:37;;;;;;;5.13;3.63;;;15.10;99.90;;;;;;5067153;28;20034;-74
2022/07/03 02:41:14;;;;;;;4.32;3.90;;;15.10;99.90;;;;;;5077783;28;20043;-74
2022/07/03 02:44:00;;;;;;;6.20;4.55;;;15.10;99.90;;;;;;5112599;28;20075;-74
2022/07/03 02:46:58;;;;;;;7.57;5.32;;;15.10;99.90;;;;;;5073500;28;20050;-74
2022/07/03 02:49:29;;;;;;;10.52;6.25;;;15.00;99.90;;;;;;5074668;28;20055;-74
2022/07/03 02:52:34;;;;;;;5.25;4.45;;;14.90;99.90;;;;;;5079461;28;20075;-74
2022/07/03 02:55:43;;;;;;;6.80;6.10;;;14.90;99.90;;;;;;5080750;28;20146;-74
2022/07/03 02:58:46;;;;;;;8.13;4.60;;;14.80;99.90;;;;;;5080950;28;20558;-74
2022/07/03 03:01:34;;;;;;;9.75;7.22;;;14.70;99.90;;;;;;5076061;28;20062;-74
2022/07/03 03:04:20;;;;;;;8.00;7.20;;;14.70;99.90;;;;;;5076842;28;20036;-74
2022/07/03 03:07:14;;;;;;;8.65;7.75;;;14.60;99.90;;;;;;5079153;28;20095;-74
2022/07/03 03:09:42;;;;;;;8.88;8.07;;;14.60;99.90;;;;;;5075063;28;20060;-74
2022/07/03 03:12:09;;;;;;;10.48;7.20;;;14.50;99.90;;;;;;5095525;28;20240;-74
2022/07/03 03:14:47;;;;;;;7.95;7.20;;;14.50;99.90;;;;;;5078949;28;20043;-74
2022/07/03 03:17:19;;;;;;;6.38;5.75;;;14.50;99.90;;;;;;5106521;27;20048;-74
2022/07/03 03:19:54;;;;;;;9.65;8.45;;;14.40;99.90;;;;;;5094741;28;20055;-75
2022/07/03 03:22:48;;;;;;;7.60;6.75;;;14.40;99.90;;;;;;5095723;28;20507;-75
2022/07/03 03:25:15;;;;;;;10.13;9.13;;;14.40;99.90;;;;;;5093169;28;20131;-74
2022/07/03 03:27:40;;;;;;;10.55;9.13;;;14.30;99.90;;;;;;5061355;28;20044;-74
2022/07/03 03:30:07;;;;;;;8.63;7.82;;;14.40;99.90;;;;;;5098917;28;20061;-74
2022/07/03 03:32:36;;;;;;;10.70;7.80;;;14.40;99.90;;;;;;5052379;28;20043;-74
2022/07/03 03:35:02;;;;;;;7.53;6.80;;;14.30;99.90;;;;;;5102347;27;20031;-74
2022/07/03 03:37:30;;;;;;;10.00;7.50;;;14.30;99.90;;;;;;5067419;28;20088;-74
2022/07/03 03:39:56;;;;;;;7.32;6.63;;;14.40;99.90;;;;;;5100598;27;20164;-75
2022/07/03 03:42:22;;;;;;;6.72;5.80;;;14.40;99.90;;;;;;5083875;28;20081;-75
2022/07/03 03:44:50;;;;;;;6.07;5.13;;;14.40;99.90;;;;;;5068470;28;20627;-74
2022/07/03 03:47:16;;;;;;;7.15;5.28;;;14.40;99.90;;;;;;5099875;27;20130;-74
2022/07/03 03:49:42;;;;;;;5.65;5.10;;;14.40;99.90;;;;;;5051293;28;20131;-74
2022/07/03 03:52:08;;;;;;;6.18;5.57;;;14.40;99.90;;;;;;5068799;28;20036;-74
2022/07/03 03:54:34;;;;;;;9.70;8.18;;;14.30;99.90;;;;;;5078895;28;20036;-74
2022/07/03 03:57:23;;;;;;;6.10;5.57;;;14.30;99.90;;;;;;5081157;28;20301;-75
2022/07/03 03:59:50;;;;;;;5.90;5.30;;;14.40;99.90;;;;;;5077561;28;20083;-74
2022/07/03 04:02:17;;;;;;;7.53;6.70;;;14.40;99.90;;;;;;5105498;27;20058;-75
2022/07/03 04:04:43;;;;;;;8.30;7.60;;;14.40;99.90;;;;;;5072650;28;20074;-74
2022/07/03 04:07:09;;;;;;;9.50;8.40;;;14.40;99.90;;;;;;5065903;28;20032;-75
2022/07/03 04:09:35;;;;;;;10.32;8.32;;;14.40;99.90;;;;;;5100813;27;20040;-74
2022/07/03 04:12:02;;;;;;;10.73;9.73;;;14.40;99.90;;;;;;5071820;28;20078;-74
2022/07/03 04:14:28;;;;;;;9.05;8.25;;;14.40;99.90;;;;;;5096728;28;20101;-74
2022/07/03 04:16:53;;;;;;;8.88;8.07;;;14.40;99.90;;;;;;5071978;28;20132;-74
2022/07/03 04:19:19;;;;;;;6.45;5.72;;;14.40;99.90;;;;;;5071915;28;20043;-74
2022/07/03 04:21:45;;;;;;;13.63;8.90;;;14.50;99.90;;;;;;5072844;28;20051;-74
2022/07/03 04:24:11;;;;;;;10.48;8.77;;;14.50;99.90;;;;;;5097035;27;20495;-74
2022/07/03 04:26:37;;;;;;;10.30;9.00;;;14.50;99.90;;;;;;5074795;28;20056;-74
2022/07/03 04:29:02;;;;;;;10.77;7.40;;;14.50;99.90;;;;;;5076787;28;20132;-74
2022/07/03 04:31:28;;;;;;;9.38;8.48;;;14.50;99.90;;;;;;5098655;28;20430;-74
2022/07/03 04:33:54;;;;;;;7.50;6.70;;;14.50;99.90;;;;;;5084579;28;20122;-74
2022/07/03 04:36:20;;;;;;;9.38;8.43;;;14.60;99.90;;;;;;5081637;28;20048;-75
2022/07/03 04:38:46;;;;;;;9.02;8.13;;;14.60;99.90;;;;;;5069499;28;20039;-75
2022/07/03 04:41:11;;;;;;;8.25;7.50;;;14.60;99.90;;;;;;5099122;28;20047;-75
2022/07/03 04:43:37;;;;;;;8.35;7.65;;;14.60;99.90;;;;;;5077371;28;20154;-74
2022/07/03 04:46:03;;;;;;;8.02;7.32;;;14.70;99.90;;;;;;5076690;28;20085;-74
2022/07/03 04:48:29;;;;;;;7.82;7.00;;;14.60;99.90;;;;;;5078878;28;20139;-74
2022/07/03 04:50:56;;;;;;;7.95;6.68;;;14.70;99.90;;;;;;5080429;28;20122;-75
2022/07/03 04:53:21;;;;;;;8.30;6.95;;;14.70;99.90;;;;;;5080742;28;20173;-74
2022/07/03 04:55:47;;;;;;;7.00;6.30;;;14.70;99.90;;;;;;5089963;27;20047;-74
2022/07/03 04:58:13;;;;;;;7.50;6.65;;;14.70;99.90;;;;;;5101741;28;20052;-74
2022/07/03 05:00:42;;;;;;;7.53;6.82;;;14.70;99.90;;;;;;5081824;28;20047;-74
2022/07/03 05:03:08;;;;;;;7.03;6.32;;;14.70;99.90;;;;;;5076598;28;20500;-74
2022/07/03 05:05:34;;;;;;;6.28;5.78;;;14.80;99.90;;;;;;5098012;28;20048;-74
2022/07/03 05:08:00;;;;;;;6.30;5.20;;;14.80;99.90;;;;;;5070041;28;20127;-74
2022/07/03 05:10:26;;;;;;;7.20;5.88;;;14.70;99.90;;;;;;5091285;28;20083;-74
2022/07/03 05:12:52;;;;;;;6.15;5.25;;;14.80;99.90;;;;;;5063743;28;20051;-74
2022/07/03 05:15:18;;;;;;;6.38;5.60;;;14.80;99.90;;;;;;5085049;28;20048;-74
2022/07/03 05:17:44;;;;;;;6.50;5.88;;;14.90;99.90;;;;;;5080106;27;20064;-74
2022/07/03 05:20:28;;;;;;;9.57;7.18;;;14.90;99.90;;;;;;5078865;28;20112;-74
2022/07/03 05:23:02;;;;;;;7.22;6.50;;;15.00;99.90;;;;;;5081584;28;20055;-74
2022/07/03 05:25:29;;;;;;;7.00;5.85;;;15.10;99.90;;;;;;5088887;28;20075;-74
2022/07/03 05:27:57;;;;;;;7.93;6.25;;;15.10;99.90;;;;;;5056054;28;20498;-74
2022/07/03 05:30:24;;;;;;;6.90;6.18;;;15.20;99.90;;;;;;5100124;28;20467;-74
2022/07/03 05:32:50;;;;;;;7.72;6.18;;;15.30;99.90;;;;;;5102933;28;20050;-74
2022/07/03 05:35:16;;;;;;;9.30;6.78;;;15.40;99.90;;;;;;5076171;28;20087;-74
2022/07/03 05:37:42;;;;;;;7.32;6.63;;;15.50;99.90;;;;;;5096728;27;20062;-74
2022/07/03 05:40:08;;;;;;;8.45;7.65;;;15.60;99.90;;;;;;5081953;28;20568;-74
2022/07/03 05:42:34;;;;;;;9.27;7.45;;;15.70;99.90;;;;;;5099490;28;20046;-74
2022/07/03 05:45:01;;;;;;;11.15;9.07;;;15.80;99.90;;;;;;5066515;28;20059;-74
2022/07/03 05:47:27;;;;;;;13.63;8.80;;;15.90;99.90;;;;;;5099952;28;20081;-74
2022/07/03 05:49:54;;;;;;;9.13;8.15;;;16.10;99.90;;;;;;5077750;28;20047;-74
2022/07/03 05:52:23;;;;;;;10.60;7.65;;;16.10;99.90;;;;;;5066380;28;20043;-74
2022/07/03 05:54:48;;;;;;;8.82;7.00;;;16.30;99.90;;;;;;5089441;28;20567;-75
2022/07/03 05:57:14;;;;;;;8.88;7.97;;;16.40;99.90;;;;;;5106950;27;20081;-74
2022/07/03 05:59:40;;;;;;;10.02;7.03;;;16.50;99.90;;;;;;5111891;27;20398;-74
2022/07/03 06:02:07;;;;;;;10.65;7.75;;;16.60;99.90;;;;;;5074834;28;20047;-74
2022/07/03 06:04:33;;;;;;;7.85;7.03;;;16.60;99.90;;;;;;5101965;28;20079;-74
2022/07/03 06:06:58;;;;;;;7.03;6.20;;;16.70;99.90;;;;;;5081264;28;20083;-74
2022/07/03 06:09:24;;;;;;;7.95;5.30;;;16.80;99.90;;;;;;5076971;28;20047;-74
2022/07/03 06:11:50;;;;;;;6.82;4.80;;;16.90;99.90;;;;;;5080184;28;20056;-74
2022/07/03 06:14:16;;;;;;;7.72;4.60;;;17.10;99.90;;;;;;5085862;28;20633;-74
2022/07/03 06:16:42;;;;;;;6.80;4.35;;;17.20;99.90;;;;;;5072795;28;20040;-74
2022/07/03 06:19:08;;;;;;;5.47;4.18;;;17.30;99.90;;;;;;5077055;28;20074;-74
2022/07/03 06:21:33;;;;;;;8.40;3.95;;;17.50;99.90;;;;;;5078212;28;20071;-74
2022/07/03 06:23:59;;;;;;;5.03;3.35;;;17.60;99.90;;;;;;5107264;27;20059;-74
2022/07/03 06:26:26;;;;;;;4.78;3.10;;;17.80;99.90;;;;;;5088177;28;20035;-74
2022/07/03 06:28:52;;;;;;;5.70;3.00;;;17.90;99.90;;;;;;5092112;28;20039;-74
2022/07/03 06:31:21;;;;;;;4.00;2.47;;;18.10;99.90;;;;;;5075133;28;20101;-74
2022/07/03 06:33:47;;;;;;;6.60;2.60;;;18.20;99.90;;;;;;5072448;28;20074;-74
2022/07/03 06:36:13;;;;;;;3.97;2.38;;;18.30;99.90;;;;;;5083583;28;20034;-74
2022/07/03 06:38:39;;;;;;;5.78;2.75;;;18.30;99.90;;;;;;5092925;28;20672;-74
2022/07/03 06:41:05;;;;;;;4.80;2.60;;;18.30;99.90;;;;;;5099194;28;20521;-74
2022/07/03 06:43:31;;;;;;;5.10;1.90;;;18.50;99.90;;;;;;5082110;28;20135;-74
2022/07/03 06:45:56;;;;;;;5.15;2.05;;;18.60;99.90;;;;;;5072537;28;20098;-74
2022/07/03 06:48:22;;;;;;;4.93;2.25;;;18.70;99.90;;;;;;5053098;28;20048;-74
2022/07/03 06:50:51;;;;;;;3.53;1.60;;;18.80;99.90;;;;;;5086325;28;20056;-74
2022/07/03 06:53:20;;;;;;;3.08;1.20;;;18.90;99.90;;;;;;5084678;28;20048;-74
2022/07/03 06:55:46;;;;;;;6.15;1.65;;;19.00;99.90;;;;;;5069841;28;20055;-75
2022/07/03 06:58:11;;;;;;;3.03;1.38;;;19.10;99.90;;;;;;5085219;28;20465;-75
2022/07/03 07:00:38;;;;;;;3.83;1.40;;;19.20;99.90;;;;;;5093604;28;20795;-74
2022/07/03 07:03:04;;;;;;;2.83;1.13;;;19.30;99.90;;;;;;5092270;28;20136;-75
2022/07/03 07:05:33;;;;;;;2.53;1.00;;;19.50;99.90;;;;;;5105921;27;20549;-74
2022/07/03 07:07:59;;;;;;;2.88;1.40;;;19.60;99.90;;;;;;5099852;27;20055;-74
2022/07/03 07:10:25;;;;;;;3.78;1.42;;;19.80;99.90;;;;;;5093381;28;20048;-75
2022/07/03 07:12:51;;;;;;;3.78;1.48;;;19.90;99.90;;;;;;5086507;27;20043;-74
2022/07/03 07:15:20;;;;;;;2.83;1.17;;;19.90;99.90;;;;;;5091655;28;20043;-75
2022/07/03 07:17:45;;;;;;;3.13;1.13;;;20.00;99.90;;;;;;5075550;28;20107;-75
2022/07/03 07:20:11;;;;;;;3.50;1.15;;;20.00;99.90;;;;;;5098883;28;20400;-75
2022/07/03 07:22:37;;;;;;;3.58;1.10;;;20.00;99.90;;;;;;5093502;27;20051;-74
2022/07/03 07:25:03;;;;;;;1.88;0.90;;;20.00;99.90;;;;;;5089941;27;20044;-75
2022/07/03 07:27:29;;;;;;;2.55;1.02;;;20.00;99.90;;;;;;5094555;27;20112;-74
2022/07/03 07:29:55;;;;;;;3.17;1.75;;;20.10;99.90;;;;;;5094738;28;20496;-74
2022/07/03 07:32:20;;;;;;;3.47;1.40;;;20.10;99.90;;;;;;5100988;28;20043;-75
2022/07/03 07:34:46;;;;;;;3.17;1.10;;;20.20;99.90;;;;;;5080702;28;20554;-75
2022/07/03 07:37:12;;;;;;;4.95;1.33;;;20.20;99.90;;;;;;5118107;27;20042;-75
2022/07/03 07:39:38;;;;;;;2.00;1.20;;;20.30;99.90;;;;;;5105552;27;20047;-74
2022/07/03 07:42:04;;;;;;;3.50;1.40;;;20.40;99.90;;;;;;5082219;28;20127;-74
2022/07/03 07:44:30;;;;;;;2.80;0.95;;;20.40;99.90;;;;;;5058199;28;20044;-75
2022/07/03 07:46:55;;;;;;;3.88;1.50;;;20.50;99.90;;;;;;5069525;28;20035;-74
2022/07/03 07:49:21;;;;;;;3.08;1.30;;;20.50;99.90;;;;;;5080154;28;20075;-75
2022/07/03 07:51:47;;;;;;;4.72;1.50;;;20.70;99.90;;;;;;5082072;28;20174;-74
2022/07/03 07:54:13;;;;;;;4.32;1.48;;;20.90;99.90;;;;;;5071722;28;20078;-74
2022/07/03 07:56:39;;;;;;;4.15;1.50;;;21.10;99.90;;;;;;5086355;28;20429;-73
2022/07/03 07:59:05;;;;;;;5.55;1.60;;;21.20;99.90;;;;;;5093325;28;20043;-74
2022/07/03 08:07:00;;;;;;;4.45;1.58;;;21.50;99.90;;;;;;5088144;27;20047;-74
2022/07/03 08:09:25;;;;;;;3.17;1.30;;;21.60;99.90;;;;;;5080633;28;20658;-74
2022/07/03 08:11:51;;;;;;;4.70;1.30;;;21.70;99.90;;;;;;5081914;28;20123;-75
2022/07/03 08:14:17;;;;;;;4.18;1.67;;;21.90;99.90;;;;;;5075924;28;20052;-74
2022/07/03 08:16:45;;;;;;;4.72;1.60;;;22.00;99.90;;;;;;5095863;28;20040;-74
2022/07/03 08:19:10;;;;;;;3.17;1.50;;;22.10;99.90;;;;;;5082457;28;20083;-74
2022/07/03 08:21:36;;;;;;;4.20;1.25;;;22.10;99.90;;;;;;5081598;28;20083;-73
2022/07/03 08:24:02;;;;;;;1.98;1.25;;;22.00;99.90;;;;;;5088792;28;20070;-74
2022/07/03 08:26:28;;;;;;;3.03;1.20;;;21.90;99.90;;;;;;5072212;28;20039;-74
2022/07/03 08:28:54;;;;;;;3.03;1.05;;;21.70;99.90;;;;;;5063931;28;20059;-74
2022/07/03 08:31:20;;;;;;;2.80;1.08;;;21.50;99.90;;;;;;5077369;28;20090;-75
2022/07/03 08:33:46;;;;;;;4.97;0.98;;;21.30;99.90;;;;;;5093095;27;20126;-74
2022/07/03 08:36:11;;;;;;;3.35;1.13;;;21.20;99.90;;;;;;5098825;27;20051;-74
2022/07/03 08:38:37;;;;;;;3.58;1.17;;;21.20;99.90;;;;;;5068765;28;20093;-74
2022/07/03 08:41:04;;;;;;;3.97;1.30;;;21.40;99.90;;;;;;5109773;27;20051;-74
2022/07/03 08:43:30;;;;;;;5.03;1.38;;;21.60;99.90;;;;;;5074587;28;20158;-74
2022/07/03 08:45:58;;;;;;;4.15;1.13;;;21.90;99.90;;;;;;5075761;28;20109;-74
2022/07/03 08:48:25;;;;;;;4.28;1.20;;;22.10;99.90;;;;;;5061208;28;20052;-74
2022/07/03 08:50:52;;;;;;;3.60;1.35;;;22.10;99.90;;;;;;5088758;28;21046;-74
2022/07/03 08:53:18;;;;;;;4.65;1.00;;;22.00;99.90;;;;;;5105062;27;20490;-74
2022/07/03 08:55:45;;;;;;;4.88;1.45;;;22.00;99.90;;;;;;5091584;28;20036;-74
2022/07/03 08:58:14;;;;;;;3.78;1.35;;;21.90;99.90;;;;;;5101947;27;20039;-75
2022/07/03 09:00:41;;;;;;;2.80;0.85;;;21.90;99.90;;;;;;5075795;28;20040;-74
2022/07/03 09:03:11;;;;;;;5.20;1.23;;;22.00;99.90;;;;;;5083538;28;20035;-74
2022/07/03 09:05:38;;;;;;;3.55;1.15;;;22.10;99.90;;;;;;5100879;28;20043;-74
2022/07/03 09:08:07;;;;;;;5.32;1.10;;;22.10;99.90;;;;;;5077400;28;20051;-75
2022/07/03 09:10:33;;;;;;;3.08;1.20;;;22.00;99.90;;;;;;5079127;28;20445;-75
2022/07/03 09:12:59;;;;;;;3.22;1.30;;;22.10;99.90;;;;;;5091430;28;20051;-74
2022/07/03 09:15:25;;;;;;;4.07;1.17;;;22.30;99.90;;;;;;5084715;28;20556;-74
2022/07/03 09:17:59;;;;;;;4.90;1.10;;;22.50;99.90;;;;;;5080155;28;20047;-74
2022/07/03 09:20:34;;;;;;;5.18;1.25;;;22.60;99.90;;;;;;5103036;27;20062;-74
2022/07/03 09:23:12;;;;;;;2.53;0.70;;;22.70;99.90;;;;;;5091246;28;20071;-73
2022/07/03 09:25:58;;;;;;;3.72;0.70;;;22.90;99.90;;;;;;5092212;28;20660;-74
2022/07/03 09:28:41;;;;;;;2.45;0.63;;;23.10;99.90;;;;;;5096940;28;20084;-74
2022/07/03 09:31:07;;;;;;;2.40;0.60;;;23.10;99.90;;;;;;5097459;28;20051;-74
2022/07/03 09:33:33;;;;;;;1.33;0.40;;;23.30;99.50;;;;;;5091335;28;20075;-74
2022/07/03 09:35:59;;;;;;;3.08;0.47;;;23.40;98.50;;;;;;5072449;28;20032;-74
2022/07/03 09:38:25;;;;;;;1.17;0.43;;;23.50;94.80;;;;;;5065933;28;20195;-74
2022/07/03 09:40:54;;;;;;;0.93;0.35;;;23.50;94.80;;;;;;5092152;28;20069;-74
2022/07/03 09:43:29;;;;;;;2.05;0.60;;;23.70;95.10;;;;;;5090609;28;20064;-73
2022/07/03 09:45:57;;;;;;;2.17;0.65;;;23.80;92.50;;;;;;5088625;28;20051;-74
2022/07/03 09:48:34;;;;;;;2.45;0.80;;;23.90;93.20;;;;;;5086359;28;20119;-74
2022/07/03 09:51:16;;;;;;;3.88;0.60;;;24.00;92.80;;;;;;5094731;28;20710;-74
2022/07/03 09:53:48;;;;;;;1.35;0.60;;;24.10;92.80;;;;;;5098200;28;20147;-74
2022/07/03 09:56:16;;;;;;;2.60;0.60;;;24.20;92.10;;;;;;5096715;28;20076;-74
2022/07/03 09:58:58;;;;;;;3.42;0.60;;;24.30;94.40;;;;;;5061263;28;20048;-74
2022/07/03 10:01:26;;;;;;;2.05;0.50;;;24.40;92.40;;;;;;5102657;28;20047;-74
2022/07/03 10:03:54;;;;;;;3.17;0.80;;;24.40;93.00;;;;;;5076846;28;20529;-73
2022/07/03 10:06:20;;;;;;;2.97;0.90;;;24.50;92.00;;;;;;5091762;28;20055;-73
2022/07/03 10:08:47;;;;;;;1.48;0.50;;;24.50;92.10;;;;;;5111733;27;20058;-73
2022/07/03 10:11:13;;;;;;;2.53;0.70;;;24.70;93.20;;;;;;5084914;28;20051;-74
2022/07/03 10:13:40;;;;;;;6.70;0.77;;;24.70;92.80;;;;;;5078262;28;20079;-74
2022/07/03 10:16:08;;;;;;;3.70;0.90;;;24.70;91.30;;;;;;5067713;28;20055;-74
2022/07/03 10:18:37;;;;;;;1.80;0.68;;;24.50;90.30;;;;;;5097049;28;20060;-73
2022/07/03 10:21:06;;;;;;;2.92;0.82;;;24.20;90.00;;;;;;5095008;28;20047;-74
2022/07/03 10:23:32;;;;;;;2.10;0.80;;;24.10;91.20;;;;;;5072086;28;20189;-74
2022/07/03 10:25:59;;;;;;;2.47;0.95;;;24.20;92.60;;;;;;5100862;28;20107;-74
2022/07/03 10:28:25;;;;;;;1.83;0.63;;;24.40;93.60;;;;;;5082681;28;20035;-73
2022/07/03 10:30:51;;;;;;;2.85;0.88;;;24.30;92.20;;;;;;5085799;28;20039;-73
2022/07/03 10:33:20;;;;;;;4.70;1.10;;;24.10;92.20;;;;;;5097663;28;20396;-73
2022/07/03 10:35:52;;;;;;;2.13;0.87;;;24.00;94.90;;;;;;5070499;28;20390;-73
2022/07/03 10:38:39;;;;;;;3.03;1.00;;;24.10;93.90;;;;;;5082023;28;20838;-73
2022/07/03 10:46:50;;;;;;;1.88;0.60;;;23.90;94.30;;;;;;5090261;28;20047;-74
2022/07/03 10:49:16;;;;;;;2.75;0.80;;;23.80;96.80;;;;;;5087743;28;20130;-74
2022/07/03 10:51:45;;;;;;;2.75;0.70;;;23.90;96.80;;;;;;5073324;28;20039;-74
2022/07/03 10:54:22;;;;;;;1.88;0.52;;;24.10;96.30;;;;;;5080501;28;20044;-74
2022/07/03 10:57:00;;;;;;;5.18;1.00;;;24.30;91.80;;;;;;5079931;28;20139;-74
2022/07/03 10:59:35;;;;;;;1.80;0.70;;;24.50;90.20;;;;;;5095395;27;20071;-74
2022/07/03 11:02:55;;;;;;;2.38;0.73;;;24.50;93.00;;;;;;5095931;28;20073;-74
2022/07/03 11:05:26;;;;;;;1.85;0.50;;;24.70;94.00;;;;;;5045520;28;20048;-75
2022/07/03 11:07:53;;;;;;;2.70;0.75;;;24.90;93.10;;;;;;5079917;27;20067;-75
2022/07/03 11:10:18;;;;;;;3.40;0.60;;;25.00;92.40;;;;;;5102758;28;20720;-74
2022/07/03 11:12:56;;;;;;;1.08;0.63;;;25.10;91.30;;;;;;5092127;28;20123;-74
2022/07/03 11:15:37;;;;;;;3.50;0.73;;;25.20;90.60;;;;;;5089511;27;20047;-74
2022/07/03 11:18:09;;;;;;;2.28;1.00;;;25.20;88.40;;;;;;5107581;27;20063;-74
2022/07/03 11:20:41;;;;;;;2.42;0.52;;;25.30;88.70;;;;;;5100154;28;20054;-74
2022/07/03 11:23:08;;;;;;;3.90;0.82;;;25.40;90.50;;;;;;5096740;27;20437;-74
2022/07/03 11:25:53;;;;;;;3.35;0.93;;;25.50;88.90;;;;;;5098124;28;20048;-74
2022/07/03 11:28:31;;;;;;;2.50;0.80;;;25.70;90.30;;;;;;5106448;27;20047;-74
2022/07/03 11:31:18;;;;;;;0.90;0.55;;;25.70;84.30;;;;;;5084334;28;20156;-75
2022/07/03 11:33:53;;;;;;;3.17;0.70;;;25.70;84.50;;;;;;5099753;28;20064;-74
2022/07/03 11:36:22;;;;;;;3.03;0.75;;;25.60;83.30;;;;;;5106952;27;20055;-74
2022/07/03 11:38:55;;;;;;;2.55;0.85;;;25.60;86.00;;;;;;5094212;28;20047;-73
2022/07/03 11:41:21;;;;;;;4.03;0.80;;;25.60;84.10;;;;;;5094738;28;20040;-73
2022/07/03 11:43:55;;;;;;;3.28;0.93;;;25.60;81.40;;;;;;5076001;28;20104;-74
2022/07/03 11:46:29;;;;;;;2.20;0.55;;;25.50;81.30;;;;;;5075783;28;20048;-73
2022/07/03 11:49:09;;;;;;;3.80;1.30;;;25.50;81.60;;;;;;5115389;27;20055;-74
2022/07/03 11:51:36;;;;;;;2.67;0.82;;;25.50;80.20;;;;;;5102770;27;20376;-74
2022/07/03 11:54:04;;;;;;;4.25;0.80;;;25.50;83.30;;;;;;5106143;27;20113;-74
2022/07/03 11:56:31;;;;;;;0.82;0.47;;;25.50;84.30;;;;;;5069893;28;20071;-74
2022/07/03 11:58:58;;;;;;;2.20;0.65;;;25.50;86.90;;;;;;5081247;28;20046;-74
2022/07/03 12:01:30;;;;;;;4.20;0.68;;;25.60;85.60;;;;;;5072834;28;20052;-73
2022/07/03 12:04:12;;;;;;;3.25;0.60;;;25.70;87.40;;;;;;5098246;28;20062;-74
2022/07/03 12:06:43;;;;;;;3.92;0.77;;;25.80;82.70;;;;;;5093928;28;20058;-73
2022/07/03 12:09:22;;;;;;;3.50;0.80;;;25.80;81.10;;;;;;5075172;28;20238;-74
2022/07/03 12:12:01;;;;;;;4.60;1.08;;;25.70;81.40;;;;;;5070296;28;20052;-73
2022/07/03 12:14:47;;;;;;;3.97;0.88;;;25.60;87.80;;;;;;5106236;27;20046;-73
2022/07/03 12:17:19;;;;;;;1.73;0.60;;;25.80;86.50;;;;;;5080798;28;20043;-73
2022/07/03 12:20:11;;;;;;;3.83;0.90;;;25.80;81.40;;;;;;5084658;28;20363;-73
2022/07/03 12:22:41;;;;;;;3.92;0.80;;;25.80;85.90;;;;;;5097438;28;20546;-74
2022/07/03 12:25:12;;;;;;;3.60;0.80;;;25.80;83.80;;;;;;5079342;28;20729;-74
2022/07/03 12:27:42;;;;;;;4.80;1.08;;;25.80;85.50;;;;;;5091078;28;20306;-73
2022/07/03 12:30:17;;;;;;;5.07;0.95;;;25.80;86.30;;;;;;5058318;28;20482;-73
2022/07/03 12:32:46;;;;;;;3.08;1.00;;;25.80;87.60;;;;;;5083073;28;20127;-74
2022/07/03 12:35:12;;;;;;;4.43;0.93;;;25.70;90.80;;;;;;5078958;28;20427;-74
2022/07/03 12:37:40;;;;;;;4.00;0.93;;;25.50;90.30;;;;;;5081866;28;20123;-74
2022/07/03 12:40:10;;;;;;;2.53;0.75;;;25.30;88.80;;;;;;5067394;28;20113;-74
2022/07/03 12:42:47;;;;;;;4.43;0.88;;;25.10;85.60;;;;;;5056085;28;20054;-74
2022/07/03 12:45:15;;;;;;;3.45;0.80;;;24.80;84.00;;;;;;5082624;28;20114;-74
2022/07/03 12:47:41;;;;;;;3.08;1.10;;;24.50;89.80;;;;;;5068650;28;20040;-74
2022/07/03 12:50:08;;;;;;;6.38;1.20;;;24.40;93.10;;;;;;5067475;28;20092;-74
2022/07/03 12:52:50;;;;;;;1.98;0.82;;;24.40;95.50;;;;;;5080832;28;20044;-74
2022/07/03 12:55:25;;;;;;;3.75;0.90;;;24.50;96.70;;;;;;5092786;28;20056;-74
2022/07/03 13:00:58;;;;;;;4.30;0.80;;;24.70;95.10;;;;;;5092244;28;20079;-74
2022/07/03 13:03:34;;;;;;;2.35;0.80;;;24.80;95.80;;;;;;5087326;28;20574;-74
2022/07/03 13:06:00;;;;;;;3.25;0.65;;;25.00;93.20;;;;;;5100816;27;20047;-74
2022/07/03 13:08:26;;;;;;;3.15;0.77;;;24.90;93.60;;;;;;5103927;27;20048;-74
2022/07/03 13:10:59;;;;;;;3.65;0.80;;;24.80;92.20;;;;;;5095123;28;20048;-74
2022/07/03 13:13:25;;;;;;;4.82;1.02;;;24.60;92.20;;;;;;5076145;28;20066;-75
2022/07/03 13:15:52;;;;;;;4.53;0.98;;;24.40;93.70;;;;;;5079262;28;20086;-75